PWSweather.com
Personal Weather Stations
Station Observations
WIKENOS15
47th Ave & 30th St, Kenosha, WI 53144

47th Ave & 30th StKenosha, WI 53144

Lat: 42.612, Lon: -87.866

Elevation: 697

Station Type: Oregon Scientific 100N

Latest ConditionsUpdated 10:00:01 AM CDT Thursday, Oct 30, 2014
Currently Today's Max Today's Min Today's Average
Temperature 42.9°F6.1°C 42.9°F6.1°C 32.7°F0.4°C 34.8°F1.6°C
Dew Point 37.4°F3.0°C 37.5°F3.1°C 30.6°F-0.8°C 32.6°F0.3°C
Winds 1.3 mph W2.1 kmh W 1.4 mph WSW2.3 kmh WSW - 0.4 mph 0.6 kmh
Wind Gusts 1.5 mph2.4 kmh 2.3 mph3.7 kmh - -
Humidity 81% 95% 81% 92%
Pressure 30.11 in1019.6 mb 30.12 in1020.0 mb 30.10 in1019.3 mb -
Hour Temp Dew Point Humidity Winds Wind Gusts Pressure Precip Precip Rate Daily Precip Total
10:00 AM 42.9°F6.1°C 37.4°F3.0°C 81% 1.3 mph W2.1 kmh W 1.5 mph2.4 kmh 30.11 in1019.6 mb 0.00 in0.0 mm 0.00 in/hr0.0 mm/hr 0.00 in0.0 mm
09:45 AM 42.3°F5.7°C 37.5°F3.1°C 83% 1.4 mph WSW2.3 kmh WSW 2.3 mph3.7 kmh 30.11 in1019.6 mb 0.00 in0.0 mm 0.00 in/hr0.0 mm/hr 0.00 in0.0 mm
09:30 AM 41.1°F5.1°C 36.9°F2.7°C 85% 1.3 mph WSW2.1 kmh WSW 2.3 mph3.7 kmh 30.12 in1020.0 mb 0.00 in0.0 mm 0.00 in/hr0.0 mm/hr 0.00 in0.0 mm
09:15 AM 40.3°F4.6°C 36.8°F2.7°C 87% 1.3 mph WSW2.1 kmh WSW 2.3 mph3.7 kmh 30.12 in1020.0 mb 0.00 in0.0 mm 0.00 in/hr0.0 mm/hr 0.00 in0.0 mm
09:00 AM 39.4°F4.1°C 36.7°F2.6°C 90% 1.0 mph WSW1.6 kmh WSW 1.5 mph2.4 kmh 30.12 in1020.0 mb 0.00 in0.0 mm 0.00 in/hr0.0 mm/hr 0.00 in0.0 mm
08:45 AM 38.0°F3.3°C 35.9°F2.2°C 92% 1.1 mph WSW1.8 kmh WSW 1.5 mph2.4 kmh 30.12 in1020.0 mb 0.00 in0.0 mm 0.00 in/hr0.0 mm/hr 0.00 in0.0 mm
08:30 AM 36.7°F2.6°C 34.6°F1.4°C 92% 0.4 mph W0.6 kmh W 0.8 mph1.3 kmh 30.11 in1019.6 mb 0.00 in0.0 mm 0.00 in/hr0.0 mm/hr 0.00 in0.0 mm
08:15 AM 35.6°F2.0°C 34.0°F1.1°C 94% 1.2 mph W1.9 kmh W 1.5 mph2.4 kmh 30.11 in1019.6 mb 0.00 in0.0 mm 0.00 in/hr0.0 mm/hr 0.00 in0.0 mm
08:00 AM 34.7°F1.5°C 33.4°F0.8°C 95% Calm Calm -- 30.11 in1019.6 mb 0.00 in0.0 mm 0.00 in/hr0.0 mm/hr 0.00 in0.0 mm
07:45 AM 34.1°F1.2°C 32.8°F0.4°C 95% Calm Calm -- 30.11 in1019.6 mb 0.00 in0.0 mm 0.00 in/hr0.0 mm/hr 0.00 in0.0 mm
07:30 AM 33.8°F1.0°C 32.3°F0.2°C 94% Calm Calm -- 30.11 in1019.6 mb 0.00 in0.0 mm 0.00 in/hr0.0 mm/hr 0.00 in0.0 mm
07:15 AM 33.9°F1.1°C 32.4°F0.2°C 94% 0.5 mph W0.8 kmh W 1.5 mph2.4 kmh 30.11 in1019.6 mb 0.00 in0.0 mm 0.00 in/hr0.0 mm/hr 0.00 in0.0 mm
07:00 AM 33.9°F1.1°C 32.3°F0.2°C 94% 0.7 mph W1.1 kmh W 0.8 mph1.3 kmh 30.11 in1019.6 mb 0.00 in0.0 mm 0.00 in/hr0.0 mm/hr 0.00 in0.0 mm
06:45 AM 33.7°F0.9°C 32.4°F0.2°C 95% 0.6 mph W1.0 kmh W 0.8 mph1.3 kmh 30.11 in1019.6 mb 0.00 in0.0 mm 0.00 in/hr0.0 mm/hr 0.00 in0.0 mm
06:30 AM 33.5°F0.8°C 32.0°F0.0°C 94% 0.6 mph W1.0 kmh W 0.8 mph1.3 kmh 30.12 in1020.0 mb 0.00 in0.0 mm 0.00 in/hr0.0 mm/hr 0.00 in0.0 mm
06:15 AM 33.3°F0.7°C 31.8°F-0.1°C 94% 1.1 mph W1.8 kmh W 1.5 mph2.4 kmh 30.11 in1019.6 mb 0.00 in0.0 mm 0.00 in/hr0.0 mm/hr 0.00 in0.0 mm
06:00 AM 33.2°F0.7°C 31.7°F-0.2°C 94% 0.8 mph W1.3 kmh W 1.5 mph2.4 kmh 30.11 in1019.6 mb 0.00 in0.0 mm 0.00 in/hr0.0 mm/hr 0.00 in0.0 mm
05:45 AM 33.4°F0.8°C 31.6°F-0.2°C 93% 0.1 mph W0.2 kmh W -- 30.11 in1019.6 mb 0.00 in0.0 mm 0.00 in/hr0.0 mm/hr 0.00 in0.0 mm
05:30 AM 33.7°F0.9°C 31.9°F-0.1°C 93% 1.1 mph W1.8 kmh W 2.3 mph3.7 kmh 30.11 in1019.6 mb 0.00 in0.0 mm 0.00 in/hr0.0 mm/hr 0.00 in0.0 mm
05:15 AM 33.9°F1.1°C 32.1°F0.1°C 93% Calm Calm -- 30.11 in1019.6 mb 0.00 in0.0 mm 0.00 in/hr0.0 mm/hr 0.00 in0.0 mm
05:00 AM 34.4°F1.3°C 32.6°F0.3°C 93% 0.5 mph NNW0.8 kmh NNW 0.8 mph1.3 kmh 30.11 in1019.6 mb 0.00 in0.0 mm 0.00 in/hr0.0 mm/hr 0.00 in0.0 mm
04:45 AM 34.1°F1.2°C 32.3°F0.2°C 93% 0.8 mph NNW1.3 kmh NNW 1.5 mph2.4 kmh 30.10 in1019.3 mb 0.00 in0.0 mm 0.00 in/hr0.0 mm/hr 0.00 in0.0 mm
04:30 AM 33.8°F1.0°C 32.0°F0.0°C 93% Calm Calm -- 30.11 in1019.6 mb 0.00 in0.0 mm 0.00 in/hr0.0 mm/hr 0.00 in0.0 mm
04:15 AM 33.6°F0.9°C 31.8°F-0.1°C 93% Calm Calm -- 30.11 in1019.6 mb 0.00 in0.0 mm 0.00 in/hr0.0 mm/hr 0.00 in0.0 mm
04:00 AM 34.0°F1.1°C 32.2°F0.1°C 93% Calm Calm -- 30.11 in1019.6 mb 0.00 in0.0 mm 0.00 in/hr0.0 mm/hr 0.00 in0.0 mm
03:45 AM 33.9°F1.1°C 31.8°F-0.1°C 92% 0.4 mph NNW0.6 kmh NNW 0.8 mph1.3 kmh 30.11 in1019.6 mb 0.00 in0.0 mm 0.00 in/hr0.0 mm/hr 0.00 in0.0 mm
03:30 AM 33.5°F0.8°C 31.4°F-0.3°C 92% 0.7 mph NNW1.1 kmh NNW 0.8 mph1.3 kmh 30.11 in1019.6 mb 0.00 in0.0 mm 0.00 in/hr0.0 mm/hr 0.00 in0.0 mm
03:15 AM 33.9°F1.1°C 31.6°F-0.2°C 91% Calm Calm -- 30.11 in1019.6 mb 0.00 in0.0 mm 0.00 in/hr0.0 mm/hr 0.00 in0.0 mm
03:00 AM 33.6°F0.9°C 31.8°F-0.1°C 93% Calm Calm -- 30.12 in1020.0 mb 0.00 in0.0 mm 0.00 in/hr0.0 mm/hr 0.00 in0.0 mm
02:45 AM 33.4°F0.8°C 31.6°F-0.2°C 93% Calm Calm -- 30.11 in1019.6 mb 0.00 in0.0 mm 0.00 in/hr0.0 mm/hr 0.00 in0.0 mm
02:30 AM 33.2°F0.7°C 31.4°F-0.3°C 93% Calm Calm -- 30.11 in1019.6 mb 0.00 in0.0 mm 0.00 in/hr0.0 mm/hr 0.00 in0.0 mm
02:15 AM 32.8°F0.4°C 30.7°F-0.7°C 92% Calm Calm -- 30.12 in1020.0 mb 0.00 in0.0 mm 0.00 in/hr0.0 mm/hr 0.00 in0.0 mm
02:00 AM 32.7°F0.4°C 30.6°F-0.8°C 92% Calm Calm -- 30.11 in1019.6 mb 0.00 in0.0 mm 0.00 in/hr0.0 mm/hr 0.00 in0.0 mm
01:45 AM 33.1°F0.6°C 31.0°F-0.6°C 92% Calm Calm -- 30.11 in1019.6 mb 0.00 in0.0 mm 0.00 in/hr0.0 mm/hr 0.00 in0.0 mm
01:30 AM 33.0°F0.6°C 30.9°F-0.6°C 92% Calm Calm -- 30.11 in1019.6 mb 0.00 in0.0 mm 0.00 in/hr0.0 mm/hr 0.00 in0.0 mm
01:15 AM 33.1°F0.6°C 30.8°F-0.7°C 91% Calm Calm -- 30.12 in1020.0 mb 0.00 in0.0 mm 0.00 in/hr0.0 mm/hr 0.00 in0.0 mm
01:00 AM 33.4°F0.8°C 31.1°F-0.5°C 91% Calm Calm -- 30.12 in1020.0 mb 0.00 in0.0 mm 0.00 in/hr0.0 mm/hr 0.00 in0.0 mm
12:45 AM 33.5°F0.8°C 31.1°F-0.5°C 91% Calm Calm -- 30.12 in1020.0 mb 0.00 in0.0 mm 0.00 in/hr0.0 mm/hr 0.00 in0.0 mm
12:30 AM 33.3°F0.7°C 31.0°F-0.6°C 91% Calm Calm -- 30.12 in1020.0 mb 0.00 in0.0 mm 0.00 in/hr0.0 mm/hr 0.00 in0.0 mm
12:15 AM 33.8°F1.0°C 31.2°F-0.4°C 90% Calm Calm -- 30.12 in1020.0 mb 0.00 in0.0 mm 0.00 in/hr0.0 mm/hr 0.00 in0.0 mm
12:00 AM 34.1°F1.2°C 31.2°F-0.4°C 89% Calm Calm -- 30.12 in1020.0 mb 0.00 in0.0 mm 0.00 in/hr0.0 mm/hr 0.00 in0.0 mm